Terminal Aerodrome Forecast
Issued by NWS Melbourne, FL

Home | Current Version | Previous Version | Text Only | Print | Product List | Glossary On
Versions: 1 2 3 4 5 6 7 8 9 10 11 12 13 14 15 16 17 18 19 20 21 22 23
000
FTUS42 KMLB 311532 AAB
TAFMLB
TAF AMD
KMLB 311532Z 3116/0112 13007KT P6SM SCT030 SCT040
      TEMPO 3116/3118 BKN030 BKN040
     FM311900 15010KT P6SM VCTS SCT020CB BKN040 OVC150
     FM010000 17005KT P6SM SCT020 SCT050 BKN150=

USA.gov is the U.S. government's official web portal to all federal, state and local government web resources and services.